Weather at New Market Airport

Public forecast

Using degrees Fahrenheit for public forecast. Weather courtesy of forecast.io.

Current aviation weather report (METAR) for New Market Airport

Report is more than 6 hours old.

Retrieved 2020/08/06 16:35 UTC (2 months ago):

K8W2 061635Z AUTO 03006KT 10SM BKN020 OVC029 A3011 RMK AO1

Closest aviation forecast (TAF) to New Market Airport

Closest forecast is Charlottesville Albemarle Airport, 33.3 nm (61.6 km) SSE. Retrieved 2020/09/27 12:36 UTC (0 seconds ago):

TAF KCHO 271132Z 2712/2812 VRB03KT 1/4SM FG OVC001 FM271300 00000KT 1SM BR SCT015 FM271400 00000KT P6SM SCT035 FM271800 17005KT P6SM BKN070 FM280600 VRB03KT 3SM BR BKN090 FM280700 VRB03KT 2SM BR BKN060 FM280800 VRB03KT 2SM BR SCT020